sensor_id;sensor_type;location;lat;lon;timestamp;pressure;altitude;pressure_sealevel;temperature;humidity
59274;BME280;45044;41.572;24.730;2023-02-16T00:00:49;92410.47;;;-3.49;100.00
59274;BME280;45044;41.572;24.730;2023-02-16T00:03:19;92416.66;;;-3.44;100.00
59274;BME280;45044;41.572;24.730;2023-02-16T00:05:47;92410.50;;;-3.38;100.00
59274;BME280;45044;41.572;24.730;2023-02-16T00:08:14;92408.94;;;-3.23;100.00
59274;BME280;45044;41.572;24.730;2023-02-16T00:10:41;92409.44;;;-3.32;100.00
59274;BME280;45044;41.572;24.730;2023-02-16T00:13:29;92407.41;;;-3.35;100.00
59274;BME280;45044;41.572;24.730;2023-02-16T00:16:17;92406.66;;;-3.56;100.00
59274;BME280;45044;41.572;24.730;2023-02-16T00:18:44;92384.03;;;-3.80;100.00
59274;BME280;45044;41.572;24.730;2023-02-16T00:21:11;92416.66;;;-3.55;100.00
59274;BME280;45044;41.572;24.730;2023-02-16T00:23:38;92417.16;;;-3.58;100.00
59274;BME280;45044;41.572;24.730;2023-02-16T00:26:12;92419.75;;;-3.74;100.00
59274;BME280;45044;41.572;24.730;2023-02-16T00:28:39;92412.56;;;-3.82;100.00
59274;BME280;45044;41.572;24.730;2023-02-16T00:31:13;92418.69;;;-3.73;100.00
59274;BME280;45044;41.572;24.730;2023-02-16T00:33:40;92419.75;;;-3.74;100.00
59274;BME280;45044;41.572;24.730;2023-02-16T00:36:07;92415.13;;;-3.66;100.00
59274;BME280;45044;41.572;24.730;2023-02-16T00:38:34;92411.00;;;-3.83;100.00
59274;BME280;45044;41.572;24.730;2023-02-16T00:41:01;92412.53;;;-3.92;100.00
59274;BME280;45044;41.572;24.730;2023-02-16T00:43:28;92411.50;;;-3.81;100.00
59274;BME280;45044;41.572;24.730;2023-02-16T00:45:56;92413.81;;;-3.85;100.00
59274;BME280;45044;41.572;24.730;2023-02-16T00:48:23;92411.00;;;-3.73;100.00
59274;BME280;45044;41.572;24.730;2023-02-16T00:50:50;92416.91;;;-3.62;100.00
59274;BME280;45044;41.572;24.730;2023-02-16T00:53:17;92411.28;;;-3.64;100.00
59274;BME280;45044;41.572;24.730;2023-02-16T00:55:43;92413.06;;;-3.69;100.00
59274;BME280;45044;41.572;24.730;2023-02-16T00:58:28;92400.19;;;-3.85;100.00
59274;BME280;45044;41.572;24.730;2023-02-16T01:01:03;92405.06;;;-3.94;100.00
59274;BME280;45044;41.572;24.730;2023-02-16T01:03:32;92406.13;;;-3.79;100.00
59274;BME280;45044;41.572;24.730;2023-02-16T01:05:58;92401.75;;;-3.84;100.00
59274;BME280;45044;41.572;24.730;2023-02-16T01:08:44;92398.41;;;-3.85;100.00
59274;BME280;45044;41.572;24.730;2023-02-16T01:11:29;92404.06;;;-3.72;100.00
59274;BME280;45044;41.572;24.730;2023-02-16T01:13:56;92399.19;;;-3.89;100.00
59274;BME280;45044;41.572;24.730;2023-02-16T01:16:37;92395.06;;;-3.85;100.00
59274;BME280;45044;41.572;24.730;2023-02-16T01:19:04;92390.94;;;-4.02;100.00
59274;BME280;45044;41.572;24.730;2023-02-16T01:21:32;92390.44;;;-4.04;100.00
59274;BME280;45044;41.572;24.730;2023-02-16T01:23:58;92383.25;;;-3.97;100.00
59274;BME280;45044;41.572;24.730;2023-02-16T01:26:26;92389.94;;;-3.80;100.00
59274;BME280;45044;41.572;24.730;2023-02-16T01:28:52;92381.19;;;-3.84;100.00
59274;BME280;45044;41.572;24.730;2023-02-16T01:31:19;92382.19;;;-4.11;100.00
59274;BME280;45044;41.572;24.730;2023-02-16T01:33:46;92379.16;;;-3.87;100.00
59274;BME280;45044;41.572;24.730;2023-02-16T01:38:47;92381.69;;;-4.18;100.00
59274;BME280;45044;41.572;24.730;2023-02-16T01:44:29;92360.09;;;-4.28;100.00
59274;BME280;45044;41.572;24.730;2023-02-16T01:50:17;92365.22;;;-4.23;100.00
59274;BME280;45044;41.572;24.730;2023-02-16T01:53:08;92370.28;;;-4.49;100.00
59274;BME280;45044;41.572;24.730;2023-02-16T01:55:43;92363.16;;;-4.36;100.00
59274;BME280;45044;41.572;24.730;2023-02-16T01:58:34;92361.59;;;-4.32;100.00
59274;BME280;45044;41.572;24.730;2023-02-16T02:03:33;92363.16;;;-4.36;100.00
59274;BME280;45044;41.572;24.730;2023-02-16T02:06:22;92369.31;;;-4.22;100.00
59274;BME280;45044;41.572;24.730;2023-02-16T02:09:06;92360.59;;;-4.21;100.00
59274;BME280;45044;41.572;24.730;2023-02-16T02:11:44;92357.78;;;-4.35;100.00
59274;BME280;45044;41.572;24.730;2023-02-16T02:14:19;92358.28;;;-4.33;100.00
59274;BME280;45044;41.572;24.730;2023-02-16T02:17:13;92355.94;;;-4.34;100.00
59274;BME280;45044;41.572;24.730;2023-02-16T02:36:35;92345.19;;;-4.36;100.00
59274;BME280;45044;41.572;24.730;2023-02-16T02:39:18;92348.28;;;-4.29;100.00
59274;BME280;45044;41.572;24.730;2023-02-16T02:41:57;92342.09;;;-4.43;100.00
59274;BME280;45044;41.572;24.730;2023-02-16T02:44:47;92340.25;;;-4.59;100.00
59274;BME280;45044;41.572;24.730;2023-02-16T02:47:14;92352.56;;;-4.61;100.00
59274;BME280;45044;41.572;24.730;2023-02-16T02:49:52;92351.31;;;-4.48;100.00
59274;BME280;45044;41.572;24.730;2023-02-16T02:52:20;92341.81;;;-4.47;100.00
59274;BME280;45044;41.572;24.730;2023-02-16T02:54:48;92355.94;;;-4.50;100.00
59274;BME280;45044;41.572;24.730;2023-02-16T02:57:43;92344.59;;;-4.70;100.00
59274;BME280;45044;41.572;24.730;2023-02-16T03:00:36;92337.88;;;-4.81;100.00
59274;BME280;45044;41.572;24.730;2023-02-16T03:03:26;92353.81;;;-4.74;100.00
59274;BME280;45044;41.572;24.730;2023-02-16T03:08:35;92352.75;;;-4.83;100.00
59274;BME280;45044;41.572;24.730;2023-02-16T03:11:09;92352.75;;;-4.78;100.00
59274;BME280;45044;41.572;24.730;2023-02-16T03:14:00;92347.59;;;-4.83;100.00
59274;BME280;45044;41.572;24.730;2023-02-16T03:16:51;92349.16;;;-4.82;100.00
59274;BME280;45044;41.572;24.730;2023-02-16T03:19:43;92343.00;;;-4.76;100.00
59274;BME280;45044;41.572;24.730;2023-02-16T03:22:29;92350.38;;;-5.00;100.00
59274;BME280;45044;41.572;24.730;2023-02-16T03:25:15;92349.06;;;-5.08;100.00
59274;BME280;45044;41.572;24.730;2023-02-16T03:28:03;92353.94;;;-5.01;100.00
59274;BME280;45044;41.572;24.730;2023-02-16T03:30:51;92344.84;;;-4.76;100.00
59274;BME280;45044;41.572;24.730;2023-02-16T03:33:19;92355.38;;;-4.67;100.00
59274;BME280;45044;41.572;24.730;2023-02-16T03:35:46;92338.16;;;-4.67;100.00
59274;BME280;45044;41.572;24.730;2023-02-16T03:38:13;92345.13;;;-4.52;100.00
59274;BME280;45044;41.572;24.730;2023-02-16T03:40:42;92353.81;;;-4.74;100.00
59274;BME280;45044;41.572;24.730;2023-02-16T03:43:09;92339.44;;;-4.75;100.00
59274;BME280;45044;41.572;24.730;2023-02-16T03:45:40;92353.94;;;-5.01;100.00
59274;BME280;45044;41.572;24.730;2023-02-16T03:48:07;92355.69;;;-5.18;100.00
59274;BME280;45044;41.572;24.730;2023-02-16T03:50:34;92359.88;;;-5.01;100.00
59274;BME280;45044;41.572;24.730;2023-02-16T03:53:01;92357.34;;;-4.90;100.00
59274;BME280;45044;41.572;24.730;2023-02-16T03:55:45;92358.91;;;-4.89;100.00
59274;BME280;45044;41.572;24.730;2023-02-16T03:58:14;92353.50;;;-4.88;100.00
59274;BME280;45044;41.572;24.730;2023-02-16T04:00:42;92359.69;;;-4.84;100.00
59274;BME280;45044;41.572;24.730;2023-02-16T04:03:09;92354.75;;;-4.90;100.00
59274;BME280;45044;41.572;24.730;2023-02-16T04:05:36;92353.03;;;-4.74;100.00
59274;BME280;45044;41.572;24.730;2023-02-16T04:08:04;92357.84;;;-4.94;100.00
59274;BME280;45044;41.572;24.730;2023-02-16T04:10:31;92356.75;;;-5.08;100.00
59274;BME280;45044;41.572;24.730;2023-02-16T04:12:57;92359.31;;;-5.08;100.00
59274;BME280;45044;41.572;24.730;2023-02-16T04:15:26;92354.69;;;-5.17;100.00
59274;BME280;45044;41.572;24.730;2023-02-16T04:17:53;92362.91;;;-5.09;100.00
59274;BME280;45044;41.572;24.730;2023-02-16T04:20:22;92324.63;;;-5.21;100.00
59274;BME280;45044;41.572;24.730;2023-02-16T04:22:49;92354.97;;;-5.08;100.00
59274;BME280;45044;41.572;24.730;2023-02-16T04:25:17;92356.47;;;-5.12;100.00
59274;BME280;45044;41.572;24.730;2023-02-16T04:27:44;92351.81;;;-5.25;100.00
59274;BME280;45044;41.572;24.730;2023-02-16T04:30:14;92356.69;;;-5.24;100.00
59274;BME280;45044;41.572;24.730;2023-02-16T04:32:42;92347.69;;;-5.26;100.00
59274;BME280;45044;41.572;24.730;2023-02-16T04:35:09;92342.25;;;-5.35;100.00
59274;BME280;45044;41.572;24.730;2023-02-16T04:37:36;92355.09;;;-5.30;100.00
59274;BME280;45044;41.572;24.730;2023-02-16T04:40:04;92355.63;;;-5.33;100.00
59274;BME280;45044;41.572;24.730;2023-02-16T04:42:31;92348.94;;;-5.34;100.00
59274;BME280;45044;41.572;24.730;2023-02-16T04:44:58;92360.72;;;-5.38;100.00
59274;BME280;45044;41.572;24.730;2023-02-16T04:47:24;92362.75;;;-5.41;100.00
59274;BME280;45044;41.572;24.730;2023-02-16T04:49:52;92369.31;;;-5.55;100.00
59274;BME280;45044;41.572;24.730;2023-02-16T04:52:19;92362.72;;;-5.46;100.00
59274;BME280;45044;41.572;24.730;2023-02-16T04:54:46;92367.59;;;-5.44;100.00
59274;BME280;45044;41.572;24.730;2023-02-16T04:57:12;92358.22;;;-5.23;100.00
59274;BME280;45044;41.572;24.730;2023-02-16T04:59:39;92368.47;;;-5.23;100.00
59274;BME280;45044;41.572;24.730;2023-02-16T05:02:06;92371.03;;;-5.28;100.00
59274;BME280;45044;41.572;24.730;2023-02-16T05:04:33;92370.03;;;-5.22;100.00
59274;BME280;45044;41.572;24.730;2023-02-16T05:07:00;92374.25;;;-5.43;100.00
59274;BME280;45044;41.572;24.730;2023-02-16T05:09:27;92382.75;;;-5.37;100.00
59274;BME280;45044;41.572;24.730;2023-02-16T05:11:54;92377.63;;;-5.37;100.00
59274;BME280;45044;41.572;24.730;2023-02-16T05:14:39;92382.31;;;-5.29;100.00
59274;BME280;45044;41.572;24.730;2023-02-16T05:17:16;92387.47;;;-5.24;100.00
59274;BME280;45044;41.572;24.730;2023-02-16T05:19:50;92386.72;;;-5.14;100.00
59274;BME280;45044;41.572;24.730;2023-02-16T05:22:17;92381.91;;;-5.05;100.00
59274;BME280;45044;41.572;24.730;2023-02-16T05:24:44;92380.88;;;-5.09;100.00
59274;BME280;45044;41.572;24.730;2023-02-16T05:27:14;92367.50;;;-5.17;100.00
59274;BME280;45044;41.572;24.730;2023-02-16T05:29:41;92390.56;;;-5.17;100.00
59274;BME280;45044;41.572;24.730;2023-02-16T05:32:08;92398.25;;;-5.22;100.00
59274;BME280;45044;41.572;24.730;2023-02-16T05:34:35;92396.69;;;-5.23;100.00
59274;BME280;45044;41.572;24.730;2023-02-16T05:37:02;92402.63;;;-5.17;100.00
59274;BME280;45044;41.572;24.730;2023-02-16T05:39:29;92398.78;;;-5.14;100.00
59274;BME280;45044;41.572;24.730;2023-02-16T05:41:55;92399.03;;;-5.16;100.00
59274;BME280;45044;41.572;24.730;2023-02-16T05:44:22;92404.41;;;-5.18;100.00
59274;BME280;45044;41.572;24.730;2023-02-16T05:46:49;92400.75;;;-5.27;100.00
59274;BME280;45044;41.572;24.730;2023-02-16T05:49:16;92404.38;;;-5.23;100.00
59274;BME280;45044;41.572;24.730;2023-02-16T05:51:43;92406.16;;;-5.23;100.00
59274;BME280;45044;41.572;24.730;2023-02-16T05:54:11;92409.09;;;-5.09;100.00
59274;BME280;45044;41.572;24.730;2023-02-16T05:56:50;92408.06;;;-5.08;100.00
59274;BME280;45044;41.572;24.730;2023-02-16T05:59:17;92396.28;;;-5.04;100.00
59274;BME280;45044;41.572;24.730;2023-02-16T06:01:51;92406.34;;;-4.92;100.00
59274;BME280;45044;41.572;24.730;2023-02-16T06:04:19;92403.22;;;-4.99;100.00
59274;BME280;45044;41.572;24.730;2023-02-16T06:06:47;92406.59;;;-4.94;100.00
59274;BME280;45044;41.572;24.730;2023-02-16T06:09:14;92410.72;;;-4.87;100.00
59274;BME280;45044;41.572;24.730;2023-02-16T06:11:41;92399.47;;;-4.76;100.00
59274;BME280;45044;41.572;24.730;2023-02-16T06:14:16;92412.56;;;-4.77;100.00
59274;BME280;45044;41.572;24.730;2023-02-16T06:16:46;92412.38;;;-4.65;100.00
59274;BME280;45044;41.572;24.730;2023-02-16T06:19:14;92414.13;;;-4.71;100.00
59274;BME280;45044;41.572;24.730;2023-02-16T06:21:41;92417.25;;;-4.59;100.00
59274;BME280;45044;41.572;24.730;2023-02-16T06:24:09;92420.94;;;-4.34;100.00
59274;BME280;45044;41.572;24.730;2023-02-16T06:26:37;92418.09;;;-4.27;100.00
59274;BME280;45044;41.572;24.730;2023-02-16T06:29:04;92415.06;;;-4.18;100.00
59274;BME280;45044;41.572;24.730;2023-02-16T06:31:31;92423.31;;;-3.95;100.00
59274;BME280;45044;41.572;24.730;2023-02-16T06:34:01;92425.66;;;-3.63;100.00
59274;BME280;45044;41.572;24.730;2023-02-16T06:36:29;92422.03;;;-3.09;100.00
59274;BME280;45044;41.572;24.730;2023-02-16T06:39:02;92418.91;;;-1.79;100.00
59274;BME280;45044;41.572;24.730;2023-02-16T06:41:29;92423.59;;;-0.18;100.00
59274;BME280;45044;41.572;24.730;2023-02-16T06:44:11;92423.41;;;1.17;100.00
59274;BME280;45044;41.572;24.730;2023-02-16T06:46:44;92415.88;;;2.83;94.37
59274;BME280;45044;41.572;24.730;2023-02-16T06:49:19;92414.41;;;3.81;79.31
59274;BME280;45044;41.572;24.730;2023-02-16T06:51:47;92412.84;;;5.04;68.73
59274;BME280;45044;41.572;24.730;2023-02-16T06:54:15;92407.13;;;5.89;64.32
59274;BME280;45044;41.572;24.730;2023-02-16T06:56:42;92412.34;;;6.62;59.62
59274;BME280;45044;41.572;24.730;2023-02-16T06:59:10;92401.53;;;7.44;56.48
59274;BME280;45044;41.572;24.730;2023-02-16T07:01:37;92401.22;;;7.46;55.17
59274;BME280;45044;41.572;24.730;2023-02-16T07:04:05;92410.56;;;8.09;54.46
59274;BME280;45044;41.572;24.730;2023-02-16T07:06:31;92408.69;;;8.22;54.01
59274;BME280;45044;41.572;24.730;2023-02-16T07:08:58;92398.34;;;9.12;50.70
59274;BME280;45044;41.572;24.730;2023-02-16T07:11:25;92392.31;;;9.76;49.13
59274;BME280;45044;41.572;24.730;2023-02-16T07:13:53;92387.84;;;10.13;48.38
59274;BME280;45044;41.572;24.730;2023-02-16T07:16:20;92391.00;;;10.98;46.93
59274;BME280;45044;41.572;24.730;2023-02-16T07:18:46;92397.34;;;11.64;44.72
59274;BME280;45044;41.572;24.730;2023-02-16T07:21:13;92388.19;;;11.81;44.79
59274;BME280;45044;41.572;24.730;2023-02-16T07:23:40;92390.50;;;12.09;44.13
59274;BME280;45044;41.572;24.730;2023-02-16T07:26:07;92386.75;;;12.72;42.79
59274;BME280;45044;41.572;24.730;2023-02-16T07:28:35;92396.59;;;12.14;43.86
59274;BME280;45044;41.572;24.730;2023-02-16T07:31:09;92386.19;;;12.25;43.78
59274;BME280;45044;41.572;24.730;2023-02-16T07:33:37;92389.53;;;11.98;43.57
59274;BME280;45044;41.572;24.730;2023-02-16T07:36:05;92387.03;;;12.67;43.26
59274;BME280;45044;41.572;24.730;2023-02-16T07:38:32;92389.91;;;13.27;41.27
59274;BME280;45044;41.572;24.730;2023-02-16T07:40:59;92384.88;;;14.09;40.41
59274;BME280;45044;41.572;24.730;2023-02-16T07:43:26;92394.91;;;14.45;39.83
59274;BME280;45044;41.572;24.730;2023-02-16T07:45:53;92383.13;;;14.28;39.85
59274;BME280;45044;41.572;24.730;2023-02-16T07:48:20;92387.41;;;14.61;38.76
59274;BME280;45044;41.572;24.730;2023-02-16T07:50:47;92385.13;;;14.56;39.54
59274;BME280;45044;41.572;24.730;2023-02-16T07:53:14;92383.81;;;15.03;38.01
59274;BME280;45044;41.572;24.730;2023-02-16T07:55:42;92380.09;;;15.55;37.04
59274;BME280;45044;41.572;24.730;2023-02-16T07:58:10;92382.03;;;14.43;39.25
59274;BME280;45044;41.572;24.730;2023-02-16T08:00:37;92376.75;;;13.76;39.60
59274;BME280;45044;41.572;24.730;2023-02-16T08:03:04;92375.97;;;13.68;40.34
59274;BME280;45044;41.572;24.730;2023-02-16T08:05:32;92379.66;;;12.45;41.50
59274;BME280;45044;41.572;24.730;2023-02-16T08:07:59;92376.31;;;13.63;40.31
59274;BME280;45044;41.572;24.730;2023-02-16T08:10:26;92373.38;;;13.75;39.18
59274;BME280;45044;41.572;24.730;2023-02-16T08:12:52;92372.47;;;13.15;40.45
59274;BME280;45044;41.572;24.730;2023-02-16T08:15:19;92383.75;;;12.12;41.96
59274;BME280;45044;41.572;24.730;2023-02-16T08:17:46;92381.69;;;12.60;39.30
59274;BME280;45044;41.572;24.730;2023-02-16T08:20:13;92375.72;;;13.92;37.36
59274;BME280;45044;41.572;24.730;2023-02-16T08:22:40;92374.34;;;14.16;37.64
59274;BME280;45044;41.572;24.730;2023-02-16T08:25:07;92368.72;;;14.21;38.39
59274;BME280;45044;41.572;24.730;2023-02-16T08:27:34;92372.34;;;14.77;37.07
59274;BME280;45044;41.572;24.730;2023-02-16T08:30:01;92372.84;;;15.01;37.84
59274;BME280;45044;41.572;24.730;2023-02-16T08:32:27;92364.94;;;15.23;37.41
59274;BME280;45044;41.572;24.730;2023-02-16T08:34:55;92369.09;;;15.75;36.97
59274;BME280;45044;41.572;24.730;2023-02-16T08:37:22;92366.03;;;16.24;35.79
59274;BME280;45044;41.572;24.730;2023-02-16T08:39:50;92367.06;;;14.77;36.94
59274;BME280;45044;41.572;24.730;2023-02-16T08:42:17;92362.88;;;14.61;36.78
59274;BME280;45044;41.572;24.730;2023-02-16T08:44:44;92357.94;;;14.63;37.79
59274;BME280;45044;41.572;24.730;2023-02-16T08:47:10;92357.31;;;14.06;37.41
59274;BME280;45044;41.572;24.730;2023-02-16T08:49:37;92355.75;;;13.03;38.90
59274;BME280;45044;41.572;24.730;2023-02-16T08:52:06;92369.47;;;12.78;40.23
59274;BME280;45044;41.572;24.730;2023-02-16T08:54:32;92356.78;;;12.91;40.09
59274;BME280;45044;41.572;24.730;2023-02-16T08:57:00;92354.94;;;12.57;40.21
59274;BME280;45044;41.572;24.730;2023-02-16T08:59:29;92359.56;;;12.33;40.91
59274;BME280;45044;41.572;24.730;2023-02-16T09:01:56;92361.78;;;13.00;40.02
59274;BME280;45044;41.572;24.730;2023-02-16T09:04:26;92354.22;;;13.44;39.58
59274;BME280;45044;41.572;24.730;2023-02-16T09:06:55;92359.16;;;13.46;39.45
59274;BME280;45044;41.572;24.730;2023-02-16T09:09:24;92351.16;;;13.38;39.49
59274;BME280;45044;41.572;24.730;2023-02-16T09:11:51;92344.22;;;13.19;40.99
59274;BME280;45044;41.572;24.730;2023-02-16T09:14:19;92353.19;;;13.11;42.50
59274;BME280;45044;41.572;24.730;2023-02-16T09:16:47;92354.41;;;13.62;40.15
59274;BME280;45044;41.572;24.730;2023-02-16T09:19:16;92348.53;;;13.38;39.96
59274;BME280;45044;41.572;24.730;2023-02-16T09:21:45;92341.88;;;14.12;39.04
59274;BME280;45044;41.572;24.730;2023-02-16T09:24:12;92341.31;;;14.59;38.70
59274;BME280;45044;41.572;24.730;2023-02-16T09:30:16;92344.75;;;13.92;37.23
59274;BME280;45044;41.572;24.730;2023-02-16T09:32:44;92344.94;;;14.29;37.38
59274;BME280;45044;41.572;24.730;2023-02-16T09:35:10;92328.59;;;15.38;35.63
59274;BME280;45044;41.572;24.730;2023-02-16T09:37:37;92339.94;;;15.78;35.51
59274;BME280;45044;41.572;24.730;2023-02-16T09:40:04;92341.09;;;15.30;35.92
59274;BME280;45044;41.572;24.730;2023-02-16T09:45:24;92329.69;;;16.06;35.16
59274;BME280;45044;41.572;24.730;2023-02-16T09:47:52;92330.91;;;15.39;35.12
59274;BME280;45044;41.572;24.730;2023-02-16T09:50:29;92335.03;;;15.18;35.75
59274;BME280;45044;41.572;24.730;2023-02-16T09:53:52;92330.09;;;15.93;34.68
59274;BME280;45044;41.572;24.730;2023-02-16T09:56:31;92327.84;;;15.37;35.75
59274;BME280;45044;41.572;24.730;2023-02-16T10:07:55;92315.72;;;15.65;34.92
59274;BME280;45044;41.572;24.730;2023-02-16T10:10:28;92307.47;;;16.71;33.80
59274;BME280;45044;41.572;24.730;2023-02-16T10:13:14;92320.63;;;15.08;36.31
59274;BME280;45044;41.572;24.730;2023-02-16T10:15:45;92314.84;;;14.59;36.55
59274;BME280;45044;41.572;24.730;2023-02-16T10:18:28;92313.06;;;15.11;36.34
59274;BME280;45044;41.572;24.730;2023-02-16T10:21:00;92307.00;;;14.88;36.18
59274;BME280;45044;41.572;24.730;2023-02-16T10:26:29;92302.03;;;14.65;36.24
59274;BME280;45044;41.572;24.730;2023-02-16T10:29:04;92297.94;;;15.40;36.43
59274;BME280;45044;41.572;24.730;2023-02-16T10:42:36;92291.47;;;14.76;37.64
59274;BME280;45044;41.572;24.730;2023-02-16T10:47:41;92286.97;;;14.94;36.86
59274;BME280;45044;41.572;24.730;2023-02-16T10:50:31;92288.78;;;14.65;37.67
59274;BME280;45044;41.572;24.730;2023-02-16T10:53:03;92279.41;;;15.15;37.49
59274;BME280;45044;41.572;24.730;2023-02-16T10:55:33;92285.06;;;15.61;35.84
59274;BME280;45044;41.572;24.730;2023-02-16T10:58:01;92280.41;;;16.20;36.22
59274;BME280;45044;41.572;24.730;2023-02-16T11:03:24;92269.69;;;16.45;36.68
59274;BME280;45044;41.572;24.730;2023-02-16T11:05:53;92271.69;;;16.19;35.76
59274;BME280;45044;41.572;24.730;2023-02-16T11:08:20;92250.94;;;15.88;36.78
59274;BME280;45044;41.572;24.730;2023-02-16T11:10:51;92259.75;;;16.60;36.51
59274;BME280;45044;41.572;24.730;2023-02-16T11:13:33;92263.28;;;16.35;35.63
59274;BME280;45044;41.572;24.730;2023-02-16T11:16:09;92251.47;;;16.51;35.12
59274;BME280;45044;41.572;24.730;2023-02-16T11:18:39;92258.78;;;16.25;36.29
59274;BME280;45044;41.572;24.730;2023-02-16T11:21:09;92238.09;;;15.61;36.31
59274;BME280;45044;41.572;24.730;2023-02-16T11:23:40;92247.19;;;16.72;35.69
59274;BME280;45044;41.572;24.730;2023-02-16T11:28:44;92239.06;;;16.26;37.62
59274;BME280;45044;41.572;24.730;2023-02-16T11:36:42;92242.66;;;16.61;36.85
59274;BME280;45044;41.572;24.730;2023-02-16T11:41:49;92227.06;;;16.71;35.79
59274;BME280;45044;41.572;24.730;2023-02-16T11:44:38;92225.13;;;16.11;37.00
59274;BME280;45044;41.572;24.730;2023-02-16T11:47:30;92221.34;;;16.76;37.77
59274;BME280;45044;41.572;24.730;2023-02-16T11:50:26;92221.75;;;17.28;35.85
59274;BME280;45044;41.572;24.730;2023-02-16T11:53:15;92217.84;;;17.40;35.64
59274;BME280;45044;41.572;24.730;2023-02-16T11:55:48;92226.44;;;17.55;35.92
59274;BME280;45044;41.572;24.730;2023-02-16T11:58:23;92211.84;;;17.32;35.84
59274;BME280;45044;41.572;24.730;2023-02-16T12:01:14;92217.13;;;16.86;37.17
59274;BME280;45044;41.572;24.730;2023-02-16T12:07:15;92209.66;;;15.80;37.80
59274;BME280;45044;41.572;24.730;2023-02-16T12:15:34;92196.78;;;15.82;37.78
59274;BME280;45044;41.572;24.730;2023-02-16T12:18:29;92198.44;;;15.32;38.12
59274;BME280;45044;41.572;24.730;2023-02-16T12:23:42;92198.47;;;15.17;40.51
59274;BME280;45044;41.572;24.730;2023-02-16T12:29:43;92191.66;;;15.02;38.64
59274;BME280;45044;41.572;24.730;2023-02-16T12:32:24;92193.19;;;15.10;39.29
59274;BME280;45044;41.572;24.730;2023-02-16T12:40:50;92190.97;;;13.61;41.91
59274;BME280;45044;41.572;24.730;2023-02-16T12:43:31;92190.16;;;15.12;40.89
59274;BME280;45044;41.572;24.730;2023-02-16T12:46:16;92199.34;;;13.70;42.36
59274;BME280;45044;41.572;24.730;2023-02-16T12:51:32;92186.03;;;12.47;42.94
59274;BME280;45044;41.572;24.730;2023-02-16T12:54:09;92188.34;;;11.79;45.17
59274;BME280;45044;41.572;24.730;2023-02-16T12:56:46;92188.13;;;12.26;45.29
59274;BME280;45044;41.572;24.730;2023-02-16T13:02:13;92177.13;;;11.86;45.40
59274;BME280;45044;41.572;24.730;2023-02-16T13:04:46;92180.13;;;11.23;46.81
59274;BME280;45044;41.572;24.730;2023-02-16T13:10:32;92178.84;;;11.40;47.22
59274;BME280;45044;41.572;24.730;2023-02-16T13:13:13;92183.53;;;11.54;47.87
59274;BME280;45044;41.572;24.730;2023-02-16T13:18:25;92189.31;;;10.82;48.99
59274;BME280;45044;41.572;24.730;2023-02-16T13:21:07;92179.75;;;10.47;50.24
59274;BME280;45044;41.572;24.730;2023-02-16T13:23:45;92182.41;;;10.70;51.23
59274;BME280;45044;41.572;24.730;2023-02-16T13:40:59;92177.00;;;11.13;51.53
59274;BME280;45044;41.572;24.730;2023-02-16T13:43:39;92180.00;;;10.41;51.90
59274;BME280;45044;41.572;24.730;2023-02-16T13:46:42;92176.34;;;10.23;52.45
59274;BME280;45044;41.572;24.730;2023-02-16T13:49:34;92181.19;;;10.21;52.73
59274;BME280;45044;41.572;24.730;2023-02-16T13:52:06;92177.78;;;9.77;54.94
59274;BME280;45044;41.572;24.730;2023-02-16T13:54:39;92182.16;;;9.92;55.66
59274;BME280;45044;41.572;24.730;2023-02-16T13:57:11;92179.41;;;9.85;55.11
59274;BME280;45044;41.572;24.730;2023-02-16T14:02:12;92186.81;;;10.42;56.58
59274;BME280;45044;41.572;24.730;2023-02-16T14:19:56;92179.31;;;8.86;61.25
59274;BME280;45044;41.572;24.730;2023-02-16T14:25:05;92173.28;;;8.85;65.53
59274;BME280;45044;41.572;24.730;2023-02-16T14:27:46;92167.66;;;9.19;68.84
59274;BME280;45044;41.572;24.730;2023-02-16T14:33:00;92168.75;;;8.82;65.69
59274;BME280;45044;41.572;24.730;2023-02-16T14:35:34;92177.88;;;8.72;65.78
59274;BME280;45044;41.572;24.730;2023-02-16T14:38:06;92168.22;;;8.93;70.39
59274;BME280;45044;41.572;24.730;2023-02-16T14:43:10;92171.44;;;8.54;76.24
59274;BME280;45044;41.572;24.730;2023-02-16T14:45:51;92178.44;;;8.17;72.24
59274;BME280;45044;41.572;24.730;2023-02-16T14:56:51;92178.13;;;7.90;77.85
59274;BME280;45044;41.572;24.730;2023-02-16T14:59:53;92149.84;;;7.67;87.66
59274;BME280;45044;41.572;24.730;2023-02-16T15:02:33;92182.72;;;8.09;84.83
59274;BME280;45044;41.572;24.730;2023-02-16T15:05:16;92188.41;;;7.83;83.82
59274;BME280;45044;41.572;24.730;2023-02-16T15:07:47;92184.78;;;7.59;87.15
59274;BME280;45044;41.572;24.730;2023-02-16T15:10:21;92186.28;;;7.72;91.67
59274;BME280;45044;41.572;24.730;2023-02-16T15:12:54;92174.72;;;7.32;94.97
59274;BME280;45044;41.572;24.730;2023-02-16T15:15:28;92182.69;;;7.11;95.96
59274;BME280;45044;41.572;24.730;2023-02-16T15:17:57;92179.56;;;7.05;100.00
59274;BME280;45044;41.572;24.730;2023-02-16T15:20:28;92173.81;;;6.87;100.00
59274;BME280;45044;41.572;24.730;2023-02-16T15:23:00;92183.72;;;6.81;100.00
59274;BME280;45044;41.572;24.730;2023-02-16T15:25:33;92175.91;;;6.68;100.00
59274;BME280;45044;41.572;24.730;2023-02-16T15:30:39;92197.06;;;6.29;100.00
59274;BME280;45044;41.572;24.730;2023-02-16T15:35:55;92193.66;;;6.16;100.00
59274;BME280;45044;41.572;24.730;2023-02-16T15:38:25;92189.22;;;5.83;100.00
59274;BME280;45044;41.572;24.730;2023-02-16T15:40:54;92195.31;;;5.87;100.00
59274;BME280;45044;41.572;24.730;2023-02-16T15:45:53;92182.31;;;5.78;100.00
59274;BME280;45044;41.572;24.730;2023-02-16T15:48:30;92192.50;;;5.92;100.00
59274;BME280;45044;41.572;24.730;2023-02-16T15:56:16;92194.38;;;5.49;100.00
59274;BME280;45044;41.572;24.730;2023-02-16T15:58:46;92193.31;;;5.50;100.00
59274;BME280;45044;41.572;24.730;2023-02-16T16:01:23;92199.59;;;5.49;100.00